createdAt,value
2019-04-23T00:00:56.326Z,101216.09
2019-04-23T00:03:19.945Z,101223.63
2019-04-23T00:05:57.932Z,101211.33
2019-04-23T00:08:29.161Z,101210.89
2019-04-23T00:10:58.436Z,101207.04
2019-04-23T00:13:30.327Z,101221.13
2019-04-23T00:21:23.512Z,101218.58
2019-04-23T00:23:53.136Z,101222.09
2019-04-23T00:26:28.584Z,101207.67
2019-04-23T00:29:00.551Z,101208.16
2019-04-23T00:31:24.075Z,101204.64
2019-04-23T00:33:57.708Z,101197.25
2019-04-23T00:36:36.589Z,101200.34
2019-04-23T00:38:59.296Z,101200.42
2019-04-23T00:44:04.229Z,101193.41
2019-04-23T00:46:34.992Z,101191.25
2019-04-23T00:51:38.012Z,101184.75
2019-04-23T00:54:13.605Z,101187.91
2019-04-23T00:59:12.436Z,101189.84
2019-04-23T01:01:49.670Z,101175.38
2019-04-23T01:04:20.403Z,101172.82
2019-04-23T01:06:52.847Z,101179.03
2019-04-23T01:09:22.238Z,101178.62
2019-04-23T01:11:48.149Z,101179.94
2019-04-23T01:14:26.257Z,101179.06
2019-04-23T01:16:49.489Z,101182.63
2019-04-23T01:19:44.462Z,101180.90
2019-04-23T01:21:41.475Z,101168.67
2019-04-23T01:24:29.703Z,101170.46
2019-04-23T01:30:09.586Z,101166.22
2019-04-23T01:37:44.244Z,101160.59
2019-04-23T01:43:00.022Z,101149.72
2019-04-23T01:45:26.041Z,101149.28
2019-04-23T01:47:49.777Z,101150.22
2019-04-23T01:52:59.360Z,101138.84
2019-04-23T01:55:28.009Z,101138.46
2019-04-23T01:58:21.938Z,101134.55
2019-04-23T02:00:37.067Z,101122.70
2019-04-23T02:08:08.302Z,101121.09
2019-04-23T02:10:53.760Z,101122.00
2019-04-23T02:13:16.436Z,101104.08
2019-04-23T02:15:47.722Z,101113.80
2019-04-23T02:18:17.964Z,101114.70
2019-04-23T02:20:56.506Z,101107.32
2019-04-23T02:23:32.886Z,101114.78
2019-04-23T02:26:15.556Z,101113.03
2019-04-23T02:28:42.002Z,101112.66
2019-04-23T02:33:45.089Z,101102.66
2019-04-23T02:36:07.020Z,101104.91
2019-04-23T02:43:56.438Z,101094.05
2019-04-23T02:46:09.022Z,101097.11
2019-04-23T02:51:26.803Z,101091.48
2019-04-23T02:56:46.699Z,101085.88
2019-04-23T02:59:05.749Z,101087.69
2019-04-23T03:01:31.994Z,101084.61
2019-04-23T03:04:10.476Z,101076.36
2019-04-23T03:06:39.007Z,101084.64
2019-04-23T03:09:33.847Z,101076.83
2019-04-23T03:11:41.739Z,101077.31
2019-04-23T03:14:31.130Z,101077.75
2019-04-23T03:19:35.832Z,101073.45
2019-04-23T03:22:05.940Z,101071.27
2019-04-23T03:24:47.746Z,101070.02
2019-04-23T03:37:35.584Z,101064.45
2019-04-23T03:42:24.462Z,101063.59
2019-04-23T03:47:41.324Z,101051.83
2019-04-23T03:52:34.804Z,101047.02
2019-04-23T03:55:06.273Z,101047.91
2019-04-23T03:57:30.705Z,101052.72
2019-04-23T04:02:52.439Z,101050.56
2019-04-23T04:05:10.564Z,101046.95
2019-04-23T04:07:49.373Z,101051.23
2019-04-23T04:10:21.701Z,101048.79
2019-04-23T04:12:39.981Z,101053.70
2019-04-23T04:15:33.191Z,101053.91
2019-04-23T04:18:03.870Z,101048.86
2019-04-23T04:20:34.406Z,101044.13
2019-04-23T04:23:07.800Z,101047.64
2019-04-23T04:25:37.215Z,101043.74
2019-04-23T04:28:01.047Z,101053.32
2019-04-23T04:33:19.709Z,101055.89
2019-04-23T04:35:35.039Z,101050.62
2019-04-23T04:38:20.262Z,101053.63
2019-04-23T04:40:42.551Z,101064.94
2019-04-23T04:45:51.428Z,101058.30
2019-04-23T04:48:11.938Z,101063.53
2019-04-23T04:50:43.624Z,101058.14
2019-04-23T04:53:33.512Z,101050.16
2019-04-23T04:55:57.229Z,101057.63
2019-04-23T04:58:26.000Z,101053.98
2019-04-23T05:03:24.008Z,101055.13
2019-04-23T05:08:48.198Z,101052.30
2019-04-23T05:11:07.812Z,101047.20
2019-04-23T05:18:53.671Z,101036.53
2019-04-23T05:21:20.257Z,101042.48
2019-04-23T05:23:54.593Z,101035.36
2019-04-23T05:31:23.494Z,101043.94
2019-04-23T05:34:03.041Z,101048.01
2019-04-23T05:36:34.411Z,101042.92
2019-04-23T05:39:07.666Z,101043.52
2019-04-23T05:41:36.817Z,101040.08
2019-04-23T05:44:10.858Z,101045.27
2019-04-23T05:54:14.099Z,101031.20
2019-04-23T05:56:55.120Z,101027.28
2019-04-23T06:01:54.173Z,101029.65
2019-04-23T06:09:26.513Z,101022.44
2019-04-23T06:12:01.327Z,101018.78
2019-04-23T06:17:06.305Z,101020.58
2019-04-23T06:19:30.369Z,101016.39
2019-04-23T06:22:28.999Z,101015.76
2019-04-23T06:24:39.363Z,101017.47
2019-04-23T06:27:10.276Z,101017.11
2019-04-23T06:32:06.489Z,101007.78
2019-04-23T06:34:43.629Z,101009.16
2019-04-23T06:37:46.668Z,101003.26
2019-04-23T06:42:11.550Z,101006.52
2019-04-23T06:44:51.763Z,100998.05
2019-04-23T06:47:21.799Z,101002.08
2019-04-23T06:49:55.991Z,100999.41
2019-04-23T06:52:31.412Z,101005.91
2019-04-23T06:57:28.825Z,101000.39
2019-04-23T07:00:11.839Z,101007.45
2019-04-23T07:02:42.221Z,101005.12
2019-04-23T07:07:52.836Z,100996.00
2019-04-23T07:10:18.693Z,101000.47
2019-04-23T07:12:47.205Z,100983.73
2019-04-23T07:15:33.750Z,100987.68
2019-04-23T07:17:58.775Z,100985.52
2019-04-23T07:20:34.601Z,100979.65
2019-04-23T07:23:13.871Z,100983.39
2019-04-23T07:25:45.743Z,100979.27
2019-04-23T07:28:23.387Z,100975.91
2019-04-23T07:31:03.884Z,100980.31
2019-04-23T07:33:32.776Z,100978.19
2019-04-23T07:36:00.017Z,100980.52
2019-04-23T07:38:47.509Z,100973.31
2019-04-23T07:41:43.264Z,100982.20
2019-04-23T07:44:38.374Z,100962.38
2019-04-23T07:47:16.296Z,100971.98
2019-04-23T07:52:12.972Z,100963.88
2019-04-23T07:54:42.006Z,100949.50
2019-04-23T07:57:16.879Z,100954.86
2019-04-23T07:59:47.114Z,100954.28
2019-04-23T08:04:56.449Z,100945.84
2019-04-23T08:07:19.985Z,100952.47
2019-04-23T08:09:54.953Z,100936.86
2019-04-23T08:12:28.898Z,100930.88
2019-04-23T08:14:53.590Z,100930.88
2019-04-23T08:17:26.218Z,100931.28
2019-04-23T08:22:37.236Z,100924.22
2019-04-23T08:25:08.366Z,100924.95
2019-04-23T08:27:41.598Z,100911.64
2019-04-23T08:30:06.411Z,100912.91
2019-04-23T08:32:45.242Z,100917.79
2019-04-23T08:35:14.432Z,100920.23
2019-04-23T08:40:20.888Z,100901.64
2019-04-23T08:45:35.472Z,100902.96
2019-04-23T08:48:09.313Z,100907.66
2019-04-23T08:53:26.383Z,100901.42
2019-04-23T08:55:44.586Z,100905.45
2019-04-23T08:58:14.140Z,100895.81
2019-04-23T09:03:31.392Z,100893.58
2019-04-23T09:05:52.944Z,100891.81
2019-04-23T09:08:20.312Z,100880.44
2019-04-23T09:10:55.842Z,100881.77
2019-04-23T09:15:56.615Z,100876.83
2019-04-23T09:18:26.151Z,100884.73
2019-04-23T09:20:57.162Z,100879.78
2019-04-23T09:23:45.140Z,100874.00
2019-04-23T09:26:02.490Z,100880.33
2019-04-23T09:28:51.667Z,100867.09
2019-04-23T09:31:30.416Z,100873.59
2019-04-23T09:36:30.691Z,100857.81
2019-04-23T09:39:00.260Z,100864.96
2019-04-23T09:42:05.526Z,100870.47
2019-04-23T09:44:41.065Z,100860.59
2019-04-23T09:47:00.848Z,100863.44
2019-04-23T09:49:26.130Z,100869.89
2019-04-23T09:52:02.548Z,100872.48
2019-04-23T09:54:32.562Z,100863.34
2019-04-23T09:57:00.350Z,100861.02
2019-04-23T09:59:41.250Z,100855.44
2019-04-23T10:01:54.348Z,100859.02
2019-04-23T10:04:23.236Z,100840.75
2019-04-23T10:07:00.350Z,100847.70
2019-04-23T10:09:14.617Z,100848.62
2019-04-23T10:11:45.225Z,100843.02
2019-04-23T10:14:16.488Z,100824.91
2019-04-23T10:16:47.324Z,100838.98
2019-04-23T10:19:18.904Z,100840.06
2019-04-23T10:21:49.300Z,100818.12
2019-04-23T10:24:19.337Z,100822.94
2019-04-23T10:26:50.384Z,100827.39
2019-04-23T10:29:23.614Z,100813.73
2019-04-23T10:31:55.421Z,100817.95
2019-04-23T10:34:27.310Z,100804.50
2019-04-23T10:36:59.542Z,100802.42
2019-04-23T10:39:36.949Z,100799.16
2019-04-23T10:42:03.416Z,100787.59
2019-04-23T10:44:40.165Z,100795.88
2019-04-23T10:48:03.763Z,100804.35
2019-04-23T10:50:46.038Z,100784.31
2019-04-23T10:53:26.842Z,100797.18
2019-04-23T10:58:23.128Z,100791.99
2019-04-23T11:00:57.164Z,100784.16
2019-04-23T11:03:42.100Z,100796.59
2019-04-23T11:08:32.245Z,100782.80
2019-04-23T11:11:12.367Z,100792.20
2019-04-23T11:16:38.598Z,100778.91
2019-04-23T11:21:26.506Z,100784.86
2019-04-23T11:23:51.787Z,100788.29
2019-04-23T11:26:28.549Z,100776.62
2019-04-23T11:28:55.187Z,100769.12
2019-04-23T11:38:58.505Z,100760.97
2019-04-23T11:41:47.084Z,100761.64
2019-04-23T11:44:14.280Z,100753.84
2019-04-23T11:54:17.850Z,100759.77
2019-04-23T11:59:25.572Z,100748.03
2019-04-23T12:04:38.571Z,100733.48
2019-04-23T12:07:22.824Z,100744.31
2019-04-23T12:09:53.700Z,100727.51
2019-04-23T12:12:25.051Z,100727.41
2019-04-23T12:15:03.143Z,100725.63
2019-04-23T12:17:33.044Z,100728.34
2019-04-23T12:25:18.085Z,100711.23
2019-04-23T12:27:33.396Z,100719.98
2019-04-23T12:30:16.540Z,100710.45
2019-04-23T12:32:53.616Z,100708.95
2019-04-23T12:38:08.896Z,100717.91
2019-04-23T12:45:50.456Z,100722.62
2019-04-23T12:48:41.225Z,100720.89
2019-04-23T12:53:25.602Z,100716.02
2019-04-23T12:58:29.222Z,100711.05
2019-04-23T13:01:05.298Z,100702.84
2019-04-23T13:05:51.421Z,100713.95
2019-04-23T13:11:06.864Z,100714.45
2019-04-23T13:13:42.553Z,100716.59
2019-04-23T13:16:12.718Z,100708.25
2019-04-23T13:18:41.531Z,100687.87
2019-04-23T13:21:29.872Z,100709.66
2019-04-23T13:23:39.182Z,100703.88
2019-04-23T13:26:17.825Z,100689.02
2019-04-23T13:28:45.876Z,100694.28
2019-04-23T13:31:18.098Z,100692.84
2019-04-23T13:34:01.321Z,100666.28
2019-04-23T13:38:55.025Z,100666.05
2019-04-23T13:41:23.394Z,100681.94
2019-04-23T13:44:21.425Z,100686.68
2019-04-23T13:46:33.134Z,100681.82
2019-04-23T13:49:01.258Z,100681.98
2019-04-23T13:51:44.768Z,100684.25
2019-04-23T13:54:13.690Z,100691.19
2019-04-23T13:59:30.623Z,100690.05
2019-04-23T14:01:46.602Z,100675.34
2019-04-23T14:04:34.961Z,100662.59
2019-04-23T14:09:37.169Z,100657.65
2019-04-23T14:11:55.009Z,100664.04
2019-04-23T14:14:43.249Z,100659.45
2019-04-23T14:17:12.622Z,100667.63
2019-04-23T14:19:28.315Z,100653.45
2019-04-23T14:22:21.083Z,100654.45
2019-04-23T14:24:53.265Z,100648.21
2019-04-23T14:27:14.313Z,100644.04
2019-04-23T14:29:48.199Z,100641.06
2019-04-23T14:32:26.412Z,100643.17
2019-04-23T14:34:58.507Z,100649.72
2019-04-23T14:37:17.583Z,100652.67
2019-04-23T14:39:52.954Z,100653.04
2019-04-23T14:42:24.412Z,100656.70
2019-04-23T14:45:13.510Z,100657.78
2019-04-23T14:47:37.923Z,100661.38
2019-04-23T14:52:50.776Z,100655.62
2019-04-23T15:00:31.393Z,100653.77
2019-04-23T15:03:00.268Z,100652.70
2019-04-23T15:05:28.396Z,100649.53
2019-04-23T15:08:02.057Z,100644.34
2019-04-23T15:10:36.042Z,100634.19
2019-04-23T15:13:01.722Z,100636.22
2019-04-23T15:18:05.859Z,100639.61
2019-04-23T15:21:19.032Z,100635.72
2019-04-23T15:23:58.105Z,100636.86
2019-04-23T15:27:10.383Z,100631.38
2019-04-23T15:28:29.037Z,100633.58
2019-04-23T15:31:28.468Z,100630.52
2019-04-23T15:36:38.909Z,100632.98
2019-04-23T15:39:08.805Z,100633.73
2019-04-23T15:44:05.825Z,100629.92
2019-04-23T15:46:32.983Z,100628.98
2019-04-23T15:51:36.846Z,100632.00
2019-04-23T15:56:40.996Z,100628.62
2019-04-23T16:03:47.138Z,100615.45
2019-04-23T16:06:19.588Z,100617.18
2019-04-23T16:11:50.134Z,100623.06
2019-04-23T16:14:22.812Z,100622.55
2019-04-23T16:16:51.325Z,100618.63
2019-04-23T16:19:24.506Z,100636.75
2019-04-23T16:22:01.708Z,100624.52
2019-04-23T16:24:24.908Z,100615.93
2019-04-23T16:27:01.049Z,100623.06
2019-04-23T16:29:46.883Z,100618.55
2019-04-23T16:32:11.656Z,100620.91
2019-04-23T16:34:50.688Z,100623.97
2019-04-23T16:37:20.164Z,100617.09
2019-04-23T16:40:01.870Z,100622.51
2019-04-23T16:45:05.954Z,100628.19
2019-04-23T16:47:28.465Z,100632.06
2019-04-23T16:50:06.442Z,100637.86
2019-04-23T16:52:32.677Z,100638.33
2019-04-23T16:55:07.082Z,100643.78
2019-04-23T16:57:43.816Z,100641.50
2019-04-23T17:00:24.487Z,100644.05
2019-04-23T17:02:45.874Z,100628.25
2019-04-23T17:05:18.003Z,100630.98
2019-04-23T17:07:53.329Z,100631.92
2019-04-23T17:10:25.389Z,100631.92
2019-04-23T17:12:52.758Z,100624.98
2019-04-23T17:15:27.907Z,100634.29
2019-04-23T17:17:55.242Z,100632.85
2019-04-23T17:23:00.588Z,100623.94
2019-04-23T17:25:26.130Z,100620.23
2019-04-23T17:28:03.603Z,100622.89
2019-04-23T17:30:32.330Z,100614.98
2019-04-23T17:33:15.297Z,100614.59
2019-04-23T17:38:32.301Z,100616.53
2019-04-23T17:41:07.354Z,100615.92
2019-04-23T17:43:50.991Z,100620.37
2019-04-23T17:46:20.088Z,100616.31
2019-04-23T17:48:44.187Z,100618.65
2019-04-23T17:51:14.461Z,100619.38
2019-04-23T17:56:26.955Z,100624.38
2019-04-23T17:59:04.335Z,100621.49
2019-04-23T18:01:57.226Z,100621.74
2019-04-23T18:04:27.516Z,100613.83
2019-04-23T18:07:05.790Z,100625.16
2019-04-23T18:09:37.896Z,100622.14
2019-04-23T18:12:25.320Z,100625.66
2019-04-23T18:17:37.480Z,100638.25
2019-04-23T18:20:12.929Z,100637.78
2019-04-23T18:23:04.791Z,100640.30
2019-04-23T18:25:30.886Z,100637.39
2019-04-23T18:28:19.725Z,100640.37
2019-04-23T18:31:12.946Z,100641.88
2019-04-23T18:36:26.103Z,100647.98
2019-04-23T18:39:18.713Z,100656.73
2019-04-23T18:41:50.536Z,100652.98
2019-04-23T18:44:22.085Z,100637.09
2019-04-23T18:47:07.161Z,100647.66
2019-04-23T18:52:50.884Z,100645.94
2019-04-23T18:55:04.151Z,100641.72
2019-04-23T18:57:38.334Z,100654.62
2019-04-23T19:00:50.097Z,100647.80
2019-04-23T19:03:37.113Z,100640.39
2019-04-23T19:06:14.768Z,100647.04
2019-04-23T19:18:04.188Z,100646.58
2019-04-23T19:23:19.091Z,100646.31
2019-04-23T19:35:23.461Z,100657.21
2019-04-23T19:40:20.713Z,100652.26
2019-04-23T19:42:55.306Z,100649.13
2019-04-23T19:45:38.775Z,100646.47
2019-04-23T19:48:20.737Z,100644.21
2019-04-23T19:51:06.062Z,100637.17
2019-04-23T19:53:43.150Z,100639.43
2019-04-23T19:56:43.725Z,100637.34
2019-04-23T19:59:01.903Z,100631.09
2019-04-23T20:01:39.969Z,100633.34
2019-04-23T20:04:04.290Z,100631.39
2019-04-23T20:18:54.612Z,100621.27
2019-04-23T20:21:57.352Z,100620.73
2019-04-23T20:27:06.158Z,100620.11
2019-04-23T20:37:13.666Z,100600.51
2019-04-23T20:39:50.659Z,100600.68
2019-04-23T20:44:53.808Z,100608.25
2019-04-23T20:47:26.970Z,100602.54
2019-04-23T20:49:47.839Z,100607.63
2019-04-23T20:52:13.121Z,100600.51
2019-04-23T21:00:06.760Z,100602.70
2019-04-23T21:05:22.839Z,100602.23
2019-04-23T21:10:37.201Z,100606.13
2019-04-23T21:15:47.637Z,100600.34
2019-04-23T21:18:15.970Z,100600.65
2019-04-23T21:20:46.024Z,100602.17
2019-04-23T21:28:26.528Z,100603.80
2019-04-23T21:33:49.845Z,100602.52
2019-04-23T21:36:31.581Z,100604.20
2019-04-23T21:39:03.986Z,100599.02
2019-04-23T21:41:45.146Z,100595.66
2019-04-23T21:46:43.893Z,100602.34
2019-04-23T21:54:25.699Z,100608.34
2019-04-23T21:56:42.731Z,100603.55
2019-04-23T21:59:07.238Z,100602.75
2019-04-23T22:01:54.122Z,100600.09
2019-04-23T22:04:25.019Z,100596.05
2019-04-23T22:09:31.633Z,100596.21
2019-04-23T22:12:12.178Z,100595.07
2019-04-23T22:19:35.141Z,100597.42
2019-04-23T22:22:00.951Z,100592.11
2019-04-23T22:24:33.209Z,100594.83
2019-04-23T22:27:06.524Z,100599.95
2019-04-23T22:32:02.862Z,100597.05
2019-04-23T22:34:51.827Z,100598.84
2019-04-23T22:37:14.611Z,100598.62
2019-04-23T22:39:45.770Z,100599.61
2019-04-23T22:42:36.669Z,100595.50
2019-04-23T22:44:57.560Z,100597.29
2019-04-23T22:47:18.996Z,100589.33
2019-04-23T22:55:02.389Z,100585.31
2019-04-23T22:57:54.855Z,100586.13
2019-04-23T23:03:06.547Z,100581.28
2019-04-23T23:05:53.510Z,100583.93
2019-04-23T23:08:07.884Z,100579.67
2019-04-23T23:10:46.442Z,100581.92
2019-04-23T23:13:15.197Z,100580.41
2019-04-23T23:15:51.306Z,100573.25
2019-04-23T23:20:52.637Z,100574.79
2019-04-23T23:23:17.791Z,100578.30
2019-04-23T23:25:56.984Z,100583.27
2019-04-23T23:31:04.083Z,100578.58
2019-04-23T23:33:36.230Z,100578.98
2019-04-23T23:36:05.868Z,100578.02
2019-04-23T23:41:10.701Z,100575.12
2019-04-23T23:43:54.943Z,100573.73
2019-04-23T23:46:20.802Z,100569.30
2019-04-23T23:48:42.188Z,100568.76
2019-04-23T23:51:17.696Z,100564.38
